createdAt,value
2019-02-21T13:06:08.391Z,4976.00
2019-02-21T13:07:08.356Z,4852.00
2019-02-21T13:08:08.352Z,4504.00
2019-02-21T13:09:08.335Z,4124.00
2019-02-21T13:10:08.325Z,3948.00
2019-02-21T13:11:08.338Z,3916.00
2019-02-21T13:12:08.296Z,3852.00
2019-02-21T13:13:08.287Z,3812.00
2019-02-21T13:14:08.312Z,3940.00
2019-02-21T13:15:08.265Z,4136.00
2019-02-21T13:16:08.420Z,4188.00
2019-02-21T13:17:08.253Z,4168.00
2019-02-21T13:18:15.227Z,4080.00
2019-02-21T13:19:09.210Z,4040.00
2019-02-21T13:20:08.207Z,3724.00
2019-02-21T13:21:08.193Z,3404.00
2019-02-21T13:22:08.311Z,3308.00
2019-02-21T13:23:08.198Z,3092.00
2019-02-21T13:24:08.211Z,2948.00
2019-02-21T13:25:08.190Z,3064.00
2019-02-21T13:26:08.234Z,3436.00
2019-02-21T13:27:08.123Z,3532.00
2019-02-21T13:28:08.108Z,3572.00
2019-02-21T13:29:08.153Z,3640.00
2019-02-21T13:30:08.137Z,3656.00
2019-02-21T13:31:08.109Z,3396.00
2019-02-21T13:32:08.065Z,3208.00
2019-02-21T13:33:08.054Z,3112.00
2019-02-21T13:34:08.086Z,3008.00
2019-02-21T13:35:08.044Z,2908.00
2019-02-21T13:36:08.084Z,2868.00
2019-02-21T13:37:08.067Z,3052.00
2019-02-21T13:38:08.020Z,3392.00
2019-02-21T13:39:07.988Z,3720.00
2019-02-21T13:40:08.003Z,3848.00
2019-02-21T13:41:07.956Z,3808.00
2019-02-21T13:42:08.014Z,3704.00
2019-02-21T13:43:08.008Z,3580.00
2019-02-21T13:44:08.125Z,3436.00
2019-02-21T13:45:07.911Z,3340.00
2019-02-21T13:46:07.920Z,3188.00
2019-02-21T13:47:07.999Z,3024.00
2019-02-21T13:48:07.934Z,2852.00
2019-02-21T13:49:07.878Z,2828.00
2019-02-21T13:50:07.852Z,2788.00
2019-02-21T13:51:07.873Z,2776.00
2019-02-21T13:52:07.870Z,2736.00
2019-02-21T13:53:07.874Z,2776.00
2019-02-21T13:54:07.801Z,2876.00
2019-02-21T13:55:07.820Z,3008.00
2019-02-21T13:56:07.777Z,3008.00
2019-02-21T13:57:07.836Z,3056.00
2019-02-21T13:58:07.848Z,3108.00
2019-02-21T13:59:07.800Z,3196.00
2019-02-21T14:00:07.787Z,3152.00
2019-02-21T14:01:07.751Z,3172.00
2019-02-21T14:02:07.785Z,3300.00
2019-02-21T14:03:07.740Z,3340.00
2019-02-21T14:04:07.763Z,3316.00
2019-02-21T14:05:07.841Z,3276.00
2019-02-21T14:06:07.669Z,3320.00
2019-02-21T14:07:07.657Z,3344.00
2019-02-21T14:08:07.739Z,3396.00
2019-02-21T14:09:07.690Z,3440.00
2019-02-21T14:10:07.701Z,3332.00
2019-02-21T14:11:07.632Z,3180.00
2019-02-21T14:12:07.639Z,3108.00
2019-02-21T14:13:07.605Z,2928.00
2019-02-21T14:14:07.581Z,2656.00
2019-02-21T14:15:07.759Z,2484.00
2019-02-21T14:16:07.562Z,2376.00
2019-02-21T14:17:07.543Z,2336.00
2019-02-21T14:18:07.555Z,2372.00
2019-02-21T14:19:07.521Z,2480.00
2019-02-21T14:20:07.533Z,2564.00
2019-02-21T14:21:07.497Z,2848.00
2019-02-21T14:22:07.481Z,2896.00
2019-02-21T14:23:07.465Z,2928.00
2019-02-21T14:24:07.487Z,2908.00
2019-02-21T14:25:07.458Z,2932.00
2019-02-21T14:26:07.439Z,3000.00
2019-02-21T14:27:08.838Z,3016.00
2019-02-21T14:28:07.428Z,2968.00
2019-02-21T14:29:07.439Z,2932.00
2019-02-21T14:30:07.386Z,2832.00
2019-02-21T14:31:07.568Z,2792.00
2019-02-21T14:32:07.369Z,2860.00
2019-02-21T14:33:07.364Z,2864.00
2019-02-21T14:34:07.373Z,2820.00
2019-02-21T14:35:07.333Z,2772.00
2019-02-21T14:36:15.194Z,2680.00
2019-02-21T14:37:08.305Z,2620.00
2019-02-21T14:38:07.295Z,2596.00
2019-02-21T14:39:07.315Z,2552.00
2019-02-21T14:40:07.306Z,2552.00
2019-02-21T14:41:07.536Z,2572.00
2019-02-21T14:42:07.255Z,2584.00
2019-02-21T14:43:07.234Z,2560.00
2019-02-21T14:44:07.241Z,2548.00
2019-02-21T14:45:07.216Z,2568.00
2019-02-21T14:46:07.211Z,2548.00
2019-02-21T14:47:08.127Z,2416.00
2019-02-21T14:48:07.178Z,2340.00
2019-02-21T14:49:07.274Z,2436.00
2019-02-21T14:50:07.186Z,2576.00
2019-02-21T14:51:07.170Z,2564.00
2019-02-21T14:52:07.131Z,2512.00
2019-02-21T14:53:07.117Z,2464.00
2019-02-21T14:54:07.108Z,2508.00
2019-02-21T14:55:07.150Z,2540.00
2019-02-21T14:56:07.090Z,2628.00
2019-02-21T14:57:07.085Z,2676.00
2019-02-21T14:58:07.064Z,2740.00
2019-02-21T14:59:07.044Z,2784.00
2019-02-21T15:00:07.071Z,2548.00
2019-02-21T15:01:07.053Z,2156.00
2019-02-21T15:02:07.011Z,1876.00
2019-02-21T15:03:07.003Z,1676.00
2019-02-21T15:04:06.997Z,1620.00
2019-02-21T15:05:09.926Z,1756.00
2019-02-21T15:06:06.998Z,1932.00
2019-02-21T15:07:06.966Z,2264.00
2019-02-21T15:08:06.952Z,2504.00
2019-02-21T15:09:06.946Z,2520.00
2019-02-21T15:10:06.948Z,2296.00
2019-02-21T15:11:06.913Z,2480.00
2019-02-21T15:12:06.909Z,2708.00
2019-02-21T15:13:06.891Z,2696.00
2019-02-21T15:14:06.884Z,2860.00
2019-02-21T15:15:06.903Z,2692.00
2019-02-21T15:16:06.859Z,2536.00
2019-02-21T15:17:06.841Z,2408.00
2019-02-21T15:18:10.346Z,2160.00
2019-02-21T15:19:06.824Z,2080.00
2019-02-21T15:20:06.813Z,2216.00
2019-02-21T15:21:06.896Z,2304.00
2019-02-21T15:22:06.795Z,2104.00
2019-02-21T15:23:06.781Z,1924.00
2019-02-21T15:24:06.766Z,1828.00
2019-02-21T15:25:06.768Z,1780.00
2019-02-21T15:26:06.772Z,1668.00
2019-02-21T15:27:08.763Z,1596.00
2019-02-21T15:28:06.720Z,1576.00
2019-02-21T15:29:06.709Z,1684.00
2019-02-21T15:30:06.716Z,1864.00
2019-02-21T15:31:06.711Z,2076.00
2019-02-21T15:32:11.015Z,1972.00
2019-02-21T15:33:07.664Z,1732.00
2019-02-21T15:34:06.657Z,1376.00
2019-02-21T15:35:06.652Z,1124.00
2019-02-21T15:36:06.663Z,884.00
2019-02-21T15:37:06.613Z,728.00
2019-02-21T15:38:06.613Z,664.00
2019-02-21T15:39:06.595Z,600.00
2019-02-21T15:40:08.735Z,556.00
2019-02-21T15:41:06.615Z,528.00
2019-02-21T15:42:06.581Z,512.00
2019-02-21T15:43:06.588Z,540.00
2019-02-21T15:44:06.541Z,564.00
2019-02-21T15:45:06.527Z,620.00
2019-02-21T15:46:07.417Z,656.00
2019-02-21T15:47:06.538Z,708.00
2019-02-21T15:48:06.572Z,760.00
2019-02-21T15:49:06.479Z,828.00
2019-02-21T15:50:06.473Z,920.00
2019-02-21T15:51:06.500Z,1040.00
2019-02-21T15:52:06.484Z,1120.00
2019-02-21T15:53:06.444Z,1088.00
2019-02-21T15:54:06.431Z,884.00
2019-02-21T15:55:12.455Z,760.00
2019-02-21T15:56:07.397Z,688.00
2019-02-21T15:57:06.426Z,672.00
2019-02-21T15:58:06.376Z,632.00
2019-02-21T15:59:06.370Z,556.00
2019-02-21T16:00:06.365Z,484.00
2019-02-21T16:01:06.345Z,420.00
2019-02-21T16:02:06.342Z,368.00
2019-02-21T16:03:06.343Z,332.00
2019-02-21T16:04:06.302Z,280.00
2019-02-21T16:05:06.292Z,256.00
2019-02-21T16:06:06.278Z,256.00
2019-02-21T16:07:06.270Z,268.00
2019-02-21T16:08:06.283Z,296.00
2019-02-21T16:09:15.828Z,304.00
2019-02-21T16:10:07.234Z,308.00
2019-02-21T16:11:06.219Z,292.00
2019-02-21T16:12:06.467Z,284.00
2019-02-21T16:13:06.298Z,288.00
2019-02-21T16:14:06.194Z,284.00
2019-02-21T16:15:06.210Z,280.00
2019-02-21T16:16:06.166Z,284.00
2019-02-21T16:17:06.151Z,276.00
2019-02-21T16:18:06.175Z,240.00
2019-02-21T16:19:06.129Z,228.00
2019-02-21T16:20:06.151Z,244.00
2019-02-21T16:21:06.099Z,264.00
2019-02-21T16:22:06.088Z,248.00
2019-02-21T16:23:06.071Z,224.00
2019-02-21T16:24:06.098Z,188.00
2019-02-21T16:25:06.051Z,160.00
2019-02-21T16:26:06.048Z,156.00
2019-02-21T16:27:06.040Z,160.00
2019-02-21T16:28:06.036Z,168.00
2019-02-21T16:29:06.009Z,184.00
2019-02-21T16:30:06.004Z,188.00
2019-02-21T16:31:05.976Z,208.00
2019-02-21T16:32:05.970Z,196.00
2019-02-21T16:33:06.275Z,196.00
2019-02-21T16:34:05.951Z,196.00
2019-02-21T16:35:05.931Z,196.00
2019-02-21T16:36:05.924Z,184.00
2019-02-21T16:37:05.911Z,156.00
2019-02-21T16:38:05.931Z,132.00
2019-02-21T16:39:05.886Z,116.00
2019-02-21T16:40:05.874Z,108.00
2019-02-21T16:41:05.878Z,96.00
2019-02-21T16:42:05.847Z,92.00
2019-02-21T16:43:05.829Z,92.00
2019-02-21T16:44:07.068Z,88.00
2019-02-21T16:45:05.815Z,84.00
2019-02-21T16:46:08.028Z,84.00
2019-02-21T16:47:05.903Z,80.00
2019-02-21T16:48:05.876Z,76.00
2019-02-21T16:49:05.788Z,72.00
2019-02-21T16:50:05.745Z,72.00
2019-02-21T16:51:05.746Z,64.00
2019-02-21T16:52:05.731Z,56.00
2019-02-21T16:53:05.729Z,52.00
2019-02-21T16:54:05.733Z,40.00
2019-02-21T16:55:05.690Z,36.00
2019-02-21T16:56:05.675Z,32.00
2019-02-21T16:57:05.661Z,32.00
2019-02-21T16:58:05.651Z,28.00
2019-02-21T16:59:05.679Z,24.00
2019-02-21T17:00:05.629Z,24.00
2019-02-21T17:01:05.635Z,20.00
2019-02-21T17:02:05.604Z,20.00
2019-02-21T17:03:05.607Z,16.00
2019-02-21T17:04:05.576Z,16.00
2019-02-21T17:05:05.600Z,12.00
2019-02-21T17:06:05.552Z,12.00
2019-02-21T17:07:13.504Z,12.00
2019-02-21T17:08:06.582Z,8.00
2019-02-21T17:09:05.526Z,8.00
2019-02-21T17:10:05.544Z,4.00
2019-02-21T17:11:05.502Z,4.00
2019-02-21T17:12:05.480Z,4.00
2019-02-21T17:13:05.491Z,4.00
2019-02-21T17:14:05.465Z,4.00
2019-02-21T17:15:05.506Z,0.00
2019-02-21T17:16:05.434Z,4.00
2019-02-21T17:17:05.425Z,0.00
2019-02-21T17:18:05.414Z,4.00
2019-02-21T17:19:05.467Z,0.00
2019-02-21T17:20:05.417Z,0.00
2019-02-21T17:21:05.381Z,0.00
2019-02-21T17:22:05.362Z,0.00
2019-02-21T17:23:05.356Z,0.00
2019-02-21T17:24:05.355Z,0.00
2019-02-21T17:25:05.362Z,0.00
2019-02-21T17:26:05.355Z,0.00
2019-02-21T17:27:05.312Z,0.00
2019-02-21T17:28:05.293Z,0.00
2019-02-21T17:29:05.281Z,0.00
2019-02-21T17:30:05.268Z,0.00
2019-02-21T17:31:05.299Z,0.00
2019-02-21T17:32:05.250Z,0.00
2019-02-21T17:33:05.245Z,0.00
2019-02-21T17:34:05.221Z,0.00
2019-02-21T17:35:05.241Z,0.00
2019-02-21T17:36:05.263Z,0.00
2019-02-21T17:37:05.191Z,0.00
2019-02-21T17:38:05.173Z,0.00
2019-02-21T17:39:05.161Z,0.00
2019-02-21T17:40:05.153Z,0.00
2019-02-21T17:41:05.167Z,0.00
2019-02-21T17:42:05.126Z,0.00
2019-02-21T17:43:05.113Z,0.00
2019-02-21T17:44:05.109Z,0.00
2019-02-21T17:45:05.089Z,0.00
2019-02-21T17:46:05.121Z,0.00
2019-02-21T17:47:05.063Z,0.00
2019-02-21T17:48:05.074Z,0.00
2019-02-21T17:49:05.052Z,0.00
2019-02-21T17:50:05.030Z,0.00
2019-02-21T17:51:05.061Z,0.00
2019-02-21T17:52:05.016Z,0.00
2019-02-21T17:53:04.993Z,0.00
2019-02-21T17:54:05.008Z,0.00
2019-02-21T17:55:04.966Z,0.00
2019-02-21T17:56:05.070Z,0.00
2019-02-21T17:57:04.959Z,0.00
2019-02-21T17:58:04.930Z,0.00
2019-02-21T17:59:04.921Z,0.00
2019-02-21T18:00:04.905Z,0.00
2019-02-21T18:01:04.924Z,0.00
2019-02-21T18:02:04.911Z,0.00
2019-02-21T18:03:04.880Z,0.00
2019-02-21T18:04:04.860Z,0.00
2019-02-21T18:05:04.851Z,0.00
2019-02-21T18:06:04.887Z,0.00
2019-02-21T18:07:04.845Z,0.00
2019-02-21T18:08:04.818Z,0.00
2019-02-21T18:09:04.821Z,0.00
2019-02-21T18:10:04.787Z,0.00
2019-02-21T18:11:04.809Z,0.00
2019-02-21T18:12:04.774Z,0.00
2019-02-21T18:13:04.824Z,0.00
2019-02-21T18:14:04.744Z,0.00
2019-02-21T18:15:04.736Z,0.00
2019-02-21T18:16:04.730Z,0.00
2019-02-21T18:17:04.721Z,0.00
2019-02-21T18:18:04.725Z,0.00
2019-02-21T18:19:04.695Z,0.00
2019-02-21T18:20:04.668Z,0.00
2019-02-21T18:21:04.673Z,0.00
2019-02-21T18:22:04.657Z,0.00
2019-02-21T18:23:04.768Z,0.00
2019-02-21T18:24:04.628Z,0.00
2019-02-21T18:25:04.616Z,0.00
2019-02-21T18:26:04.599Z,0.00
2019-02-21T18:27:04.603Z,0.00
2019-02-21T18:28:04.617Z,0.00
2019-02-21T18:29:04.563Z,0.00
2019-02-21T18:30:04.562Z,0.00
2019-02-21T18:31:04.549Z,0.00
2019-02-21T18:32:04.538Z,0.00
2019-02-21T18:33:04.568Z,0.00
2019-02-21T18:34:04.568Z,0.00
2019-02-21T18:35:04.502Z,0.00
2019-02-21T18:36:04.483Z,0.00
2019-02-21T18:37:04.483Z,0.00
2019-02-21T18:38:04.484Z,0.00
2019-02-21T18:39:04.503Z,0.00
2019-02-21T18:40:04.437Z,0.00
2019-02-21T18:41:04.445Z,0.00
2019-02-21T18:42:04.421Z,0.00
2019-02-21T18:43:04.459Z,0.00
2019-02-21T18:44:04.396Z,0.00
2019-02-21T18:45:04.393Z,0.00
2019-02-21T18:46:04.375Z,0.00
2019-02-21T18:47:04.357Z,0.00
2019-02-21T18:48:04.368Z,0.00
2019-02-21T18:49:04.386Z,0.00
2019-02-21T18:50:04.321Z,0.00
2019-02-21T18:51:04.315Z,0.00
2019-02-21T18:52:04.317Z,0.00
2019-02-21T18:53:04.287Z,0.00
2019-02-21T18:54:04.338Z,0.00
2019-02-21T18:55:04.263Z,0.00
2019-02-21T18:56:04.275Z,0.00
2019-02-21T18:57:04.238Z,0.00
2019-02-21T18:58:04.228Z,0.00
2019-02-21T18:59:04.258Z,0.00
2019-02-21T19:00:04.214Z,0.00
2019-02-21T19:01:04.264Z,0.00
2019-02-21T19:02:04.195Z,0.00
2019-02-21T19:03:04.184Z,0.00
2019-02-21T19:04:04.191Z,0.00
2019-02-21T19:05:04.161Z,0.00
2019-02-21T19:06:04.146Z,0.00
2019-02-21T19:07:04.129Z,0.00
2019-02-21T19:08:05.447Z,0.00
2019-02-21T19:09:04.109Z,0.00
2019-02-21T19:10:04.155Z,0.00
2019-02-21T19:11:04.094Z,0.00
2019-02-21T19:12:04.097Z,0.00
2019-02-21T19:13:04.050Z,0.00
2019-02-21T19:14:04.125Z,0.00
2019-02-21T19:15:04.090Z,0.00
2019-02-21T19:16:04.021Z,0.00
2019-02-21T19:17:04.014Z,0.00
2019-02-21T19:18:04.001Z,0.00
2019-02-21T19:19:04.104Z,0.00
2019-02-21T19:20:03.995Z,0.00
2019-02-21T19:21:03.957Z,0.00
2019-02-21T19:22:03.950Z,0.00
2019-02-21T19:23:03.931Z,0.00
2019-02-21T19:24:03.918Z,0.00
2019-02-21T19:25:03.933Z,0.00
2019-02-21T19:26:03.922Z,0.00
2019-02-21T19:27:03.894Z,0.00
2019-02-21T19:28:03.895Z,0.00
2019-02-21T19:29:03.883Z,0.00
2019-02-21T19:30:03.889Z,0.00
2019-02-21T19:31:03.847Z,0.00
2019-02-21T19:32:03.825Z,0.00
2019-02-21T19:33:03.813Z,0.00
2019-02-21T19:34:03.820Z,0.00
2019-02-21T19:35:03.788Z,0.00
2019-02-21T19:36:03.799Z,0.00
2019-02-21T19:37:03.762Z,0.00
2019-02-21T19:38:10.516Z,0.00
2019-02-21T19:39:04.738Z,0.00
2019-02-21T19:40:03.731Z,0.00
2019-02-21T19:41:03.791Z,0.00
2019-02-21T19:42:03.708Z,0.00
2019-02-21T19:43:03.703Z,0.00
2019-02-21T19:44:08.807Z,0.00
2019-02-21T19:45:04.665Z,0.00
2019-02-21T19:46:03.699Z,0.00
2019-02-21T19:47:03.647Z,0.00
2019-02-21T19:48:04.331Z,0.00
2019-02-21T19:49:03.638Z,0.00
2019-02-21T19:50:03.609Z,0.00
2019-02-21T19:51:03.658Z,0.00
2019-02-21T19:52:03.593Z,0.00
2019-02-21T19:53:03.589Z,0.00
2019-02-21T19:54:03.565Z,0.00
2019-02-21T19:55:03.559Z,0.00
2019-02-21T19:56:03.562Z,0.00
2019-02-21T19:57:03.524Z,0.00
2019-02-21T19:58:03.518Z,0.00
2019-02-21T19:59:03.531Z,0.00
2019-02-21T20:00:03.495Z,0.00
2019-02-21T20:01:03.557Z,0.00
2019-02-21T20:02:03.474Z,0.00
2019-02-21T20:03:03.472Z,0.00
2019-02-21T20:04:03.445Z,0.00
2019-02-21T20:05:03.449Z,0.00
2019-02-21T20:06:03.453Z,0.00
2019-02-21T20:07:03.467Z,0.00
2019-02-21T20:08:08.528Z,0.00
2019-02-21T20:09:04.392Z,0.00
2019-02-21T20:10:03.385Z,0.00
2019-02-21T20:11:03.418Z,0.00
2019-02-21T20:12:03.404Z,0.00
2019-02-21T20:13:03.350Z,0.00
2019-02-21T20:14:03.343Z,0.00
2019-02-21T20:15:03.331Z,0.00
2019-02-21T20:16:03.361Z,0.00
2019-02-21T20:17:03.339Z,0.00
2019-02-21T20:18:03.295Z,0.00
2019-02-21T20:19:03.282Z,0.00
2019-02-21T20:20:03.298Z,0.00
2019-02-21T20:21:03.278Z,0.00
2019-02-21T20:22:03.298Z,0.00
2019-02-21T20:23:03.274Z,0.00
2019-02-21T20:24:03.225Z,0.00
2019-02-21T20:25:03.261Z,0.00
2019-02-21T20:26:03.203Z,0.00
2019-02-21T20:27:03.198Z,0.00
2019-02-21T20:28:03.217Z,0.00
2019-02-21T20:29:03.198Z,0.00
2019-02-21T20:30:03.161Z,0.00
2019-02-21T20:31:03.155Z,0.00
2019-02-21T20:32:03.183Z,0.00
2019-02-21T20:33:03.222Z,0.00
2019-02-21T20:34:03.113Z,0.00
2019-02-21T20:35:03.104Z,0.00
2019-02-21T20:36:03.106Z,0.00
2019-02-21T20:37:03.122Z,0.00
2019-02-21T20:38:03.079Z,0.00
2019-02-21T20:39:03.077Z,0.00
2019-02-21T20:40:03.059Z,0.00
2019-02-21T20:41:03.037Z,0.00
2019-02-21T20:42:03.079Z,0.00
2019-02-21T20:43:03.033Z,0.00
2019-02-21T20:44:03.029Z,0.00
2019-02-21T20:45:03.058Z,0.00
2019-02-21T20:46:02.992Z,0.00
2019-02-21T20:47:02.976Z,0.00
2019-02-21T20:48:03.015Z,0.00
2019-02-21T20:49:02.952Z,0.00
2019-02-21T20:50:02.936Z,0.00
2019-02-21T20:51:02.931Z,0.00
2019-02-21T20:52:02.912Z,0.00
2019-02-21T20:53:03.063Z,0.00
2019-02-21T20:54:02.886Z,0.00
2019-02-21T20:55:02.910Z,0.00
2019-02-21T20:56:02.868Z,0.00
2019-02-21T20:57:02.876Z,0.00
2019-02-21T20:58:02.907Z,0.00
2019-02-21T20:59:02.850Z,0.00
2019-02-21T21:00:02.835Z,0.00
2019-02-21T21:01:02.812Z,0.00
2019-02-21T21:02:02.804Z,0.00
2019-02-21T21:03:02.991Z,0.00
2019-02-21T21:04:02.784Z,0.00
2019-02-21T21:05:02.788Z,0.00
2019-02-21T21:06:02.771Z,0.00
2019-02-21T21:07:02.757Z,0.00
2019-02-21T21:08:02.794Z,0.00
2019-02-21T21:09:02.726Z,0.00
2019-02-21T21:10:02.712Z,0.00
2019-02-21T21:11:02.699Z,0.00
2019-02-21T21:12:02.705Z,0.00
2019-02-21T21:13:02.703Z,0.00
2019-02-21T21:14:02.658Z,0.00
2019-02-21T21:15:02.657Z,0.00
2019-02-21T21:16:02.635Z,0.00
2019-02-21T21:17:02.619Z,0.00
2019-02-21T21:18:02.621Z,0.00
2019-02-21T21:19:02.620Z,0.00
2019-02-21T21:20:02.582Z,0.00
2019-02-21T21:21:02.582Z,0.00
2019-02-21T21:22:02.575Z,0.00
2019-02-21T21:23:02.549Z,0.00
2019-02-21T21:24:02.580Z,0.00
2019-02-21T21:25:02.559Z,0.00
2019-02-21T21:26:02.526Z,0.00
2019-02-21T21:27:02.512Z,0.00
2019-02-21T21:28:02.496Z,0.00
2019-02-21T21:29:02.513Z,0.00
2019-02-21T21:30:02.514Z,0.00
2019-02-21T21:31:02.466Z,0.00
2019-02-21T21:32:02.444Z,0.00
2019-02-21T21:33:02.468Z,0.00
2019-02-21T21:34:02.445Z,0.00
2019-02-21T21:35:02.434Z,0.00
2019-02-21T21:36:02.409Z,0.00
2019-02-21T21:37:02.397Z,0.00
2019-02-21T21:38:02.382Z,0.00
2019-02-21T21:39:02.396Z,0.00
2019-02-21T21:40:02.377Z,0.00
2019-02-21T21:41:02.338Z,0.00
2019-02-21T21:42:02.326Z,0.00
2019-02-21T21:43:02.317Z,0.00
2019-02-21T21:44:02.357Z,0.00
2019-02-21T21:45:02.295Z,0.00
2019-02-21T21:46:02.301Z,0.00
2019-02-21T21:47:02.272Z,0.00
2019-02-21T21:48:02.255Z,0.00
2019-02-21T21:49:02.254Z,0.00
2019-02-21T21:50:02.240Z,0.00
2019-02-21T21:51:02.250Z,0.00
2019-02-21T21:52:02.208Z,0.00
2019-02-21T21:53:02.197Z,0.00
2019-02-21T21:54:02.198Z,0.00
